Time;durP1;ratioP1;P1;durP2;ratioP2;P2;SDS_P1;SDS_P2;PMS_P1;PMS_P2;Temp;Humidity;BMP_temperature;BMP_pressure;BME280_temperature;BME280_humidity;BME280_pressure;Samples;Min_cycle;Max_cycle;Signal;HPM_P1;HPM_P2
2022/03/25 00:00:14;;;;;;;9.15;6.25;;;;;;;-142.91;100.00;56616.03;4984982;28;20247;-69
2022/03/25 00:02:43;;;;;;;9.82;5.25;;;;;;;-142.91;100.00;56616.03;4985562;28;20220;-69
2022/03/25 00:05:10;;;;;;;26.45;5.93;;;;;;;-142.91;100.00;56616.03;4985548;28;20327;-70
2022/03/25 00:07:38;;;;;;;8.45;5.97;;;;;;;-142.91;100.00;56616.03;4983129;28;20197;-70
2022/03/25 00:10:06;;;;;;;7.18;6.13;;;;;;;-142.91;100.00;56616.03;4984035;28;20212;-70
2022/03/25 00:12:33;;;;;;;8.15;5.90;;;;;;;-142.91;100.00;56616.03;4986511;28;20204;-70
2022/03/25 00:15:00;;;;;;;8.77;6.00;;;;;;;-142.91;100.00;56616.03;4985376;28;20207;-70
2022/03/25 00:17:27;;;;;;;9.85;6.97;;;;;;;-142.91;100.00;56616.03;4986175;28;20337;-69
2022/03/25 00:19:56;;;;;;;13.68;5.93;;;;;;;-142.91;100.00;56616.03;4982133;28;20240;-70
2022/03/25 00:22:23;;;;;;;6.53;5.93;;;;;;;-142.91;100.00;56616.03;4984237;28;20204;-69
2022/03/25 00:24:49;;;;;;;10.27;6.95;;;;;;;-142.91;100.00;56616.03;4978992;28;20200;-69
2022/03/25 00:27:17;;;;;;;14.35;5.88;;;;;;;-142.91;100.00;56616.03;4981667;28;20219;-70
2022/03/25 00:29:44;;;;;;;13.75;5.90;;;;;;;-142.91;100.00;56616.03;4981090;28;20207;-72
2022/03/25 00:32:11;;;;;;;12.63;8.55;;;;;;;-142.91;100.00;56616.03;4982176;28;20295;-66
2022/03/25 00:34:38;;;;;;;33.28;18.02;;;;;;;-142.91;100.00;56616.03;4982143;28;20196;-65
2022/03/25 00:37:06;;;;;;;13.52;7.47;;;;;;;-142.91;100.00;56616.03;4983129;28;20628;-67
2022/03/25 00:39:33;;;;;;;9.98;7.20;;;;;;;-142.91;100.00;56616.03;4982789;28;20201;-64
2022/03/25 00:42:00;;;;;;;10.38;6.95;;;;;;;-142.91;100.00;56616.03;4982354;28;20204;-67
2022/03/25 00:44:26;;;;;;;11.68;6.55;;;;;;;-142.91;100.00;56616.03;4982534;28;20212;-66
2022/03/25 00:46:53;;;;;;;23.83;12.80;;;;;;;-142.91;100.00;56616.03;4982859;28;20205;-65
2022/03/25 00:49:20;;;;;;;8.68;6.30;;;;;;;-142.91;100.00;56616.03;4981978;28;20289;-66
2022/03/25 00:51:47;;;;;;;7.97;6.63;;;;;;;-142.91;100.00;56616.03;4980518;28;20203;-66
2022/03/25 00:54:16;;;;;;;7.55;4.80;;;;;;;-142.91;100.00;56616.03;4983795;28;20212;-65
2022/03/25 00:56:43;;;;;;;15.32;8.23;;;;;;;-142.91;100.00;56616.03;4983199;28;20204;-66
2022/03/25 00:59:10;;;;;;;12.57;5.88;;;;;;;-142.91;100.00;56616.03;4982623;28;20601;-66
2022/03/25 01:01:38;;;;;;;6.28;5.55;;;;;;;-142.91;100.00;56616.03;4983092;28;20236;-66
2022/03/25 01:04:05;;;;;;;11.43;6.30;;;;;;;-142.91;100.00;56616.03;4982519;28;20299;-67
2022/03/25 01:06:32;;;;;;;8.10;5.72;;;;;;;-142.91;100.00;56616.03;4981475;28;20801;-65
2022/03/25 01:08:59;;;;;;;10.10;5.43;;;;;;;-142.91;100.00;56616.03;4983586;28;20212;-67
2022/03/25 01:11:27;;;;;;;9.77;6.95;;;;;;;-142.91;100.00;56616.03;4981028;28;20208;-66
2022/03/25 01:13:54;;;;;;;11.60;5.97;;;;;;;-142.91;100.00;56616.03;4982057;28;20597;-67
2022/03/25 01:16:22;;;;;;;5.30;4.80;;;;;;;-142.91;100.00;56616.03;4981507;28;20623;-66
2022/03/25 01:18:49;;;;;;;11.30;6.55;;;;;;;-142.91;100.00;56616.03;4981310;28;20208;-66
2022/03/25 01:21:17;;;;;;;11.80;5.60;;;;;;;-142.91;100.00;56616.03;4980657;28;20228;-66
2022/03/25 01:23:45;;;;;;;9.05;5.28;;;;;;;-142.91;100.00;56616.03;4982061;28;20212;-67
2022/03/25 01:26:12;;;;;;;8.93;5.50;;;;;;;-142.91;100.00;56616.03;4984099;28;20204;-66
2022/03/25 01:28:40;;;;;;;6.38;5.85;;;;;;;-142.91;100.00;56616.03;4982258;28;20747;-70
2022/03/25 01:31:09;;;;;;;10.35;5.00;;;;;;;-142.91;100.00;56616.03;4983022;28;20220;-70
2022/03/25 01:33:37;;;;;;;7.25;5.50;;;;;;;-142.91;100.00;56616.03;4983618;28;20241;-69
2022/03/25 01:36:05;;;;;;;10.48;4.82;;;;;;;-142.91;100.00;56616.03;4983890;28;20212;-69
2022/03/25 01:38:32;;;;;;;7.25;5.93;;;;;;;-142.91;100.00;56616.03;4981014;28;20687;-69
2022/03/25 01:40:59;;;;;;;8.75;5.47;;;;;;;-142.91;100.00;56616.03;4983902;28;20232;-70
2022/03/25 01:43:27;;;;;;;11.70;6.00;;;;;;;-142.91;100.00;56616.03;4983904;28;20205;-70
2022/03/25 01:45:55;;;;;;;5.90;5.38;;;;;;;-142.91;100.00;56616.03;4982462;28;20220;-69
2022/03/25 01:48:23;;;;;;;10.43;5.88;;;;;;;-142.91;100.00;56616.03;4983009;28;20208;-70
2022/03/25 01:50:50;;;;;;;9.10;5.50;;;;;;;-142.91;100.00;56616.03;4982246;28;20830;-70
2022/03/25 01:53:19;;;;;;;11.77;5.13;;;;;;;-142.91;100.00;56616.03;4981254;28;21660;-70
2022/03/25 01:55:51;;;;;;;8.00;6.50;;;;;;;-142.91;100.00;56616.03;4982085;28;20200;-70
2022/03/25 01:58:18;;;;;;;10.95;5.40;;;;;;;-142.91;100.00;56616.03;4981507;28;20208;-71
2022/03/25 02:00:54;;;;;;;8.80;5.95;;;;;;;-142.91;100.00;56616.03;4980619;28;20232;-70
2022/03/25 02:03:22;;;;;;;5.90;5.15;;;;;;;-142.91;100.00;56616.03;4981121;28;20269;-70
2022/03/25 02:05:50;;;;;;;15.00;5.90;;;;;;;-142.91;100.00;56616.03;4981357;28;20642;-69
2022/03/25 02:08:17;;;;;;;11.75;5.75;;;;;;;-142.91;100.00;56616.03;4982107;28;20812;-70
2022/03/25 02:10:44;;;;;;;7.38;6.25;;;;;;;-142.91;100.00;56616.03;4980074;28;20311;-70
2022/03/25 02:13:12;;;;;;;7.90;5.13;;;;;;;-142.91;100.00;56616.03;4981787;28;21578;-70
2022/03/25 02:15:41;;;;;;;12.13;6.45;;;;;;;-142.91;100.00;56616.03;4980006;28;20283;-70
2022/03/25 02:18:09;;;;;;;7.15;5.28;;;;;;;-142.91;100.00;56616.03;4980835;28;20200;-69
2022/03/25 02:20:39;;;;;;;6.03;5.32;;;;;;;-142.91;100.00;56616.03;4982111;28;20235;-69
2022/03/25 02:23:08;;;;;;;10.18;5.70;;;;;;;-142.91;100.00;56616.03;4982473;28;20200;-70
2022/03/25 02:25:35;;;;;;;7.20;6.10;;;;;;;-142.91;100.00;56616.03;4980715;28;20212;-69
2022/03/25 02:28:04;;;;;;;11.30;5.38;;;;;;;-142.91;100.00;56616.03;4982062;28;20231;-70
2022/03/25 02:30:32;;;;;;;11.57;5.47;;;;;;;-142.91;100.00;56616.03;4982992;28;20216;-70
2022/03/25 02:33:01;;;;;;;9.95;5.60;;;;;;;-142.91;100.00;56616.03;4979355;28;20225;-71
2022/03/25 02:35:39;;;;;;;6.82;5.70;;;;;;;-142.91;100.00;56616.03;4983115;28;20205;-70
2022/03/25 02:38:09;;;;;;;6.88;5.55;;;;;;;-142.91;100.00;56616.03;4981681;28;20209;-71
2022/03/25 02:40:36;;;;;;;9.00;5.72;;;;;;;-142.91;100.00;56616.03;4981440;28;20290;-71
2022/03/25 02:43:05;;;;;;;11.60;5.15;;;;;;;-142.91;100.00;56616.03;4981159;28;20201;-70
2022/03/25 02:45:32;;;;;;;7.85;5.82;;;;;;;-142.91;100.00;56616.03;4983542;28;20400;-70
2022/03/25 02:48:00;;;;;;;6.50;5.25;;;;;;;-142.91;100.00;56616.03;4981224;28;20208;-69
2022/03/25 02:50:27;;;;;;;11.55;6.18;;;;;;;-142.91;100.00;56616.03;4980854;28;20205;-70
2022/03/25 02:52:54;;;;;;;7.72;5.88;;;;;;;-142.91;100.00;56616.03;4981328;28;20238;-70
2022/03/25 02:55:23;;;;;;;9.18;5.55;;;;;;;-142.91;100.00;56616.03;4981361;28;20207;-69
2022/03/25 02:57:50;;;;;;;9.50;6.05;;;;;;;-142.91;100.00;56616.03;4981934;28;20397;-69
2022/03/25 03:00:19;;;;;;;8.65;5.22;;;;;;;-142.91;100.00;56616.03;4981859;28;20220;-71
2022/03/25 03:02:46;;;;;;;10.90;6.22;;;;;;;-142.91;100.00;56616.03;4981134;28;20228;-70
2022/03/25 03:05:13;;;;;;;8.15;6.00;;;;;;;-142.91;100.00;56616.03;4983496;28;20208;-70
2022/03/25 03:07:40;;;;;;;19.58;6.45;;;;;;;-142.91;100.00;56616.03;4982302;28;20196;-70
2022/03/25 03:10:09;;;;;;;7.22;6.25;;;;;;;-142.91;100.00;56616.03;4980982;28;20208;-70
2022/03/25 03:12:38;;;;;;;10.00;6.10;;;;;;;-142.91;100.00;56616.03;4981581;28;20213;-70
2022/03/25 03:15:07;;;;;;;8.00;5.97;;;;;;;-142.91;100.00;56616.03;4981579;28;20684;-70
2022/03/25 03:17:34;;;;;;;6.85;5.20;;;;;;;-142.91;100.00;56616.03;4980065;28;20215;-72
2022/03/25 03:20:02;;;;;;;12.43;5.70;;;;;;;-142.91;100.00;56616.03;4981369;28;20228;-70
2022/03/25 03:22:29;;;;;;;10.13;6.70;;;;;;;-142.91;100.00;56616.03;4980250;28;20239;-70
2022/03/25 03:24:55;;;;;;;19.05;5.35;;;;;;;-142.91;100.00;56616.03;4979925;28;20663;-70
2022/03/25 03:27:22;;;;;;;9.30;6.03;;;;;;;-142.91;100.00;56616.03;4978667;28;20296;-69
2022/03/25 03:29:50;;;;;;;9.90;5.05;;;;;;;-142.91;100.00;56616.03;4979737;28;20687;-69
2022/03/25 03:32:18;;;;;;;8.20;6.68;;;;;;;-142.91;100.00;56616.03;4982077;28;20465;-69
2022/03/25 03:34:45;;;;;;;8.35;6.20;;;;;;;-142.91;100.00;56616.03;4982335;28;20208;-69
2022/03/25 03:37:12;;;;;;;8.85;6.03;;;;;;;-142.91;100.00;56616.03;4981345;28;20308;-70
2022/03/25 03:39:39;;;;;;;14.45;6.13;;;;;;;-142.91;100.00;56616.03;4981215;28;20265;-70
2022/03/25 03:42:06;;;;;;;8.25;5.55;;;;;;;-142.91;100.00;56616.03;4982108;28;20297;-71
2022/03/25 03:44:32;;;;;;;10.35;6.30;;;;;;;-142.91;100.00;56616.03;4982337;28;20215;-70
2022/03/25 03:47:00;;;;;;;10.27;6.45;;;;;;;-142.91;100.00;56616.03;4982236;28;20234;-71
2022/03/25 03:49:27;;;;;;;12.48;6.20;;;;;;;-142.91;100.00;56616.03;4981145;28;20285;-70
2022/03/25 03:51:54;;;;;;;7.65;6.35;;;;;;;-142.91;100.00;56616.03;4981535;28;20209;-69
2022/03/25 03:54:21;;;;;;;12.73;6.63;;;;;;;-142.91;100.00;56616.03;4982438;28;20277;-69
2022/03/25 03:56:48;;;;;;;13.23;6.80;;;;;;;-142.91;100.00;56616.03;4981367;28;20595;-69
2022/03/25 03:59:15;;;;;;;12.73;5.90;;;;;;;-142.91;100.00;56616.03;4980971;28;20253;-71
2022/03/25 04:01:42;;;;;;;6.32;5.72;;;;;;;-142.91;100.00;56616.03;4981747;28;20304;-69
2022/03/25 04:04:10;;;;;;;9.85;6.30;;;;;;;-142.91;100.00;56616.03;4985691;28;20208;-70
2022/03/25 04:06:37;;;;;;;13.95;8.00;;;;;;;-142.91;100.00;56616.03;4984723;28;20273;-70
2022/03/25 04:09:03;;;;;;;10.30;6.85;;;;;;;-142.91;100.00;56616.03;4982091;28;20261;-70
2022/03/25 04:11:30;;;;;;;12.45;5.80;;;;;;;-142.91;100.00;56616.03;4982424;28;20208;-69
2022/03/25 04:13:57;;;;;;;14.35;6.28;;;;;;;-142.91;100.00;56616.03;4981528;28;20285;-69
2022/03/25 04:16:24;;;;;;;10.73;6.07;;;;;;;-142.91;100.00;56616.03;4981736;28;21054;-69
2022/03/25 04:18:50;;;;;;;12.55;5.95;;;;;;;-142.91;100.00;56616.03;4981959;28;20219;-69
2022/03/25 04:21:19;;;;;;;9.45;6.18;;;;;;;-142.91;100.00;56616.03;4985655;28;20248;-69
2022/03/25 04:23:46;;;;;;;9.05;5.93;;;;;;;-142.91;100.00;56616.03;4987340;28;20317;-69
2022/03/25 04:26:13;;;;;;;10.23;5.85;;;;;;;-142.91;100.00;56616.03;4984596;28;20209;-68
2022/03/25 04:28:39;;;;;;;12.52;7.45;;;;;;;-142.91;100.00;56616.03;4984250;28;20201;-68
2022/03/25 04:31:06;;;;;;;13.80;6.75;;;;;;;-142.91;100.00;56616.03;4984585;28;20192;-70
2022/03/25 04:33:34;;;;;;;7.63;5.80;;;;;;;-142.91;100.00;56616.03;4984483;28;20734;-71
2022/03/25 04:36:01;;;;;;;10.30;6.55;;;;;;;-142.91;100.00;56616.03;4984616;28;20200;-71
2022/03/25 04:38:30;;;;;;;7.72;6.72;;;;;;;-142.91;100.00;56616.03;4984399;28;20232;-71
2022/03/25 04:40:57;;;;;;;10.93;5.93;;;;;;;-142.91;100.00;56616.03;4983187;28;20229;-71
2022/03/25 04:43:25;;;;;;;11.63;6.68;;;;;;;-142.91;100.00;56616.03;4984463;28;20208;-71
2022/03/25 04:45:51;;;;;;;16.20;7.85;;;;;;;-142.91;100.00;56616.03;4985321;28;20220;-71
2022/03/25 04:48:18;;;;;;;12.48;7.28;;;;;;;-142.91;100.00;56616.03;4984181;28;20291;-70
2022/03/25 04:50:45;;;;;;;18.10;7.25;;;;;;;-142.91;100.00;56616.03;4984739;28;20235;-70
2022/03/25 04:53:12;;;;;;;25.90;8.85;;;;;;;-142.91;100.00;56616.03;4984661;28;20209;-70
2022/03/25 04:55:40;;;;;;;8.20;6.35;;;;;;;-142.91;100.00;56616.03;4984431;28;20900;-69
2022/03/25 04:58:07;;;;;;;15.35;6.88;;;;;;;-142.91;100.00;56616.03;4986301;28;20208;-69
2022/03/25 05:00:35;;;;;;;7.53;6.10;;;;;;;-142.91;100.00;56616.03;4986619;28;21219;-69
2022/03/25 05:03:02;;;;;;;9.10;6.60;;;;;;;-142.91;100.00;56616.03;4985646;28;20244;-70
2022/03/25 05:05:28;;;;;;;12.50;6.70;;;;;;;-142.91;100.00;56616.03;4985815;28;20215;-70
2022/03/25 05:07:55;;;;;;;17.58;6.75;;;;;;;-142.91;100.00;56616.03;4985680;28;20213;-69
2022/03/25 05:10:22;;;;;;;11.45;6.70;;;;;;;-142.91;100.00;56616.03;4985385;28;20606;-69
2022/03/25 05:12:51;;;;;;;9.35;6.68;;;;;;;-142.91;100.00;56616.03;4984602;28;20201;-69
2022/03/25 05:15:18;;;;;;;13.95;6.95;;;;;;;-142.91;100.00;56616.03;4986073;28;20239;-69
2022/03/25 05:17:47;;;;;;;19.17;9.55;;;;;;;-142.91;100.00;56616.03;4985181;28;20636;-70
2022/03/25 05:20:15;;;;;;;12.38;8.63;;;;;;;-142.91;100.00;56616.03;4985307;28;20280;-70
2022/03/25 05:22:42;;;;;;;12.90;8.07;;;;;;;-142.91;100.00;56616.03;4986244;28;20228;-70
2022/03/25 05:25:09;;;;;;;13.65;8.23;;;;;;;-142.91;100.00;56616.03;4985685;28;20228;-70
2022/03/25 05:27:47;;;;;;;9.70;7.05;;;;;;;-142.91;100.00;56616.03;4984950;28;20209;-70
2022/03/25 05:30:16;;;;;;;10.48;7.57;;;;;;;-142.91;100.00;56616.03;4984591;28;20204;-70
2022/03/25 05:32:43;;;;;;;15.20;6.80;;;;;;;-142.91;100.00;56616.03;4985574;28;20308;-70
2022/03/25 05:35:11;;;;;;;17.10;8.80;;;;;;;-142.91;100.00;56616.03;4985191;28;20646;-72
2022/03/25 05:37:39;;;;;;;15.88;7.60;;;;;;;-142.91;100.00;56616.03;4985878;28;20210;-70
2022/03/25 05:40:09;;;;;;;11.63;7.30;;;;;;;-142.91;100.00;56616.03;4985100;28;20686;-70
2022/03/25 05:42:36;;;;;;;18.50;8.60;;;;;;;-142.91;100.00;56616.03;4985722;28;20255;-71
2022/03/25 05:45:05;;;;;;;11.10;7.88;;;;;;;-142.91;100.00;56616.03;4984580;28;20578;-72
2022/03/25 05:47:35;;;;;;;16.80;8.02;;;;;;;-142.91;100.00;56616.03;4985851;28;21071;-70
2022/03/25 05:50:02;;;;;;;17.55;10.35;;;;;;;-142.91;100.00;56616.03;4985242;28;22370;-71
2022/03/25 05:52:28;;;;;;;10.43;8.82;;;;;;;-142.91;100.00;56616.03;4985417;28;20208;-70
2022/03/25 05:54:55;;;;;;;15.43;8.63;;;;;;;-142.91;100.00;56616.03;4985738;28;20205;-71
2022/03/25 05:57:24;;;;;;;10.63;7.85;;;;;;;-142.91;100.00;56616.03;4985005;28;20213;-71
2022/03/25 05:59:50;;;;;;;9.93;7.72;;;;;;;-142.91;100.00;56616.03;4983681;28;20207;-71
2022/03/25 06:02:18;;;;;;;12.10;7.75;;;;;;;-142.91;100.00;56616.03;4983014;28;21028;-70
2022/03/25 06:04:47;;;;;;;12.30;7.85;;;;;;;-142.91;100.00;56616.03;4985366;28;20209;-70
2022/03/25 06:07:13;;;;;;;12.40;7.95;;;;;;;-142.91;100.00;56616.03;4984982;28;20462;-71
2022/03/25 06:09:40;;;;;;;8.98;7.50;;;;;;;-142.91;100.00;56616.03;4984044;28;20243;-71
2022/03/25 06:12:10;;;;;;;29.60;8.90;;;;;;;-142.91;100.00;56616.03;4983591;28;20205;-70
2022/03/25 06:14:36;;;;;;;14.15;7.30;;;;;;;-142.91;100.00;56616.03;4984399;28;20675;-70
2022/03/25 06:17:04;;;;;;;11.68;7.55;;;;;;;-142.91;100.00;56616.03;4983053;28;20289;-70
2022/03/25 06:19:30;;;;;;;9.77;7.38;;;;;;;-142.91;100.00;56616.03;4984039;28;20727;-71
2022/03/25 06:21:59;;;;;;;11.55;7.13;;;;;;;-142.91;100.00;56616.03;4985644;28;20231;-71
2022/03/25 06:24:25;;;;;;;20.25;8.13;;;;;;;-142.91;100.00;56616.03;4984269;28;20229;-72
2022/03/25 06:26:53;;;;;;;20.52;8.30;;;;;;;-142.91;100.00;56616.03;4984889;28;21987;-71
2022/03/25 06:29:20;;;;;;;9.00;7.35;;;;;;;-142.91;100.00;56616.03;4984197;28;20311;-70
2022/03/25 06:31:48;;;;;;;10.75;8.18;;;;;;;-142.91;100.00;56616.03;4985292;28;20277;-70
2022/03/25 06:34:20;;;;;;;15.00;7.95;;;;;;;-142.91;100.00;56616.03;4985648;28;20240;-70
2022/03/25 06:36:47;;;;;;;9.90;7.57;;;;;;;-142.91;100.00;56616.03;4983724;28;20207;-70
2022/03/25 06:39:15;;;;;;;11.13;7.95;;;;;;;-142.91;100.00;56616.03;4983121;28;20204;-69
2022/03/25 06:41:43;;;;;;;18.40;7.60;;;;;;;-142.91;100.00;56616.03;4983140;28;20236;-70
2022/03/25 06:44:09;;;;;;;8.88;7.68;;;;;;;-142.91;100.00;56616.03;4981789;28;20689;-72
2022/03/25 06:46:36;;;;;;;17.48;9.32;;;;;;;-142.91;100.00;56616.03;4983165;28;20671;-70
2022/03/25 06:49:04;;;;;;;11.25;8.20;;;;;;;-142.91;100.00;56616.03;4982325;28;20208;-70
2022/03/25 06:51:32;;;;;;;10.70;8.43;;;;;;;-142.91;100.00;56616.03;4985640;28;20411;-71
2022/03/25 06:53:59;;;;;;;16.23;9.15;;;;;;;-142.91;100.00;56616.03;4984863;28;20200;-69
2022/03/25 06:56:28;;;;;;;13.68;8.52;;;;;;;-142.91;100.00;56616.03;4983977;28;20376;-69
2022/03/25 06:59:00;;;;;;;11.77;9.82;;;;;;;-142.91;100.00;56616.03;4985359;28;20199;-69
2022/03/25 07:01:27;;;;;;;13.98;8.75;;;;;;;-142.91;100.00;56616.03;4983994;28;20334;-70
2022/03/25 07:03:55;;;;;;;12.95;9.48;;;;;;;-142.91;100.00;56616.03;4983645;28;20280;-72
2022/03/25 07:06:24;;;;;;;9.75;8.77;;;;;;;-142.91;100.00;56616.03;4984747;28;20236;-69
2022/03/25 07:08:56;;;;;;;13.43;9.40;;;;;;;-142.91;100.00;56616.03;4987244;28;20212;-71
2022/03/25 07:11:25;;;;;;;12.57;9.85;;;;;;;-142.91;100.00;56616.03;4986160;28;20813;-71
2022/03/25 07:13:53;;;;;;;12.20;9.45;;;;;;;-142.91;100.00;56616.03;4985826;28;20269;-70
2022/03/25 07:16:21;;;;;;;11.55;9.95;;;;;;;-142.91;100.00;56616.03;4985625;28;22090;-71
2022/03/25 07:18:48;;;;;;;14.63;9.57;;;;;;;-142.91;100.00;56616.03;4985970;28;20204;-71
2022/03/25 07:21:16;;;;;;;10.63;9.43;;;;;;;-142.91;100.00;56616.03;4983709;28;20301;-71
2022/03/25 07:23:44;;;;;;;13.60;9.98;;;;;;;-142.91;100.00;56616.03;4985776;28;20232;-71
2022/03/25 07:26:10;;;;;;;14.23;10.38;;;;;;;-142.91;100.00;56616.03;4984589;28;21624;-71
2022/03/25 07:28:37;;;;;;;24.92;14.65;;;;;;;-142.91;100.00;56616.03;4984338;28;20208;-69
2022/03/25 07:31:06;;;;;;;18.20;11.82;;;;;;;-142.91;100.00;56616.03;4985170;28;20208;-69
2022/03/25 07:33:33;;;;;;;26.80;14.27;;;;;;;-142.91;100.00;56616.03;4984109;28;20350;-69
2022/03/25 07:36:01;;;;;;;13.75;12.27;;;;;;;-142.91;100.00;56616.03;4983433;28;20304;-69
2022/03/25 07:38:28;;;;;;;23.85;13.05;;;;;;;-142.91;100.00;56616.03;4985901;28;20219;-71
2022/03/25 07:40:55;;;;;;;62.42;34.65;;;;;;;-142.91;100.00;56616.03;4988346;28;20623;-69
2022/03/25 07:43:22;;;;;;;67.75;36.30;;;;;;;-142.91;100.00;56616.03;4989087;28;20223;-70
2022/03/25 07:45:49;;;;;;;27.58;14.20;;;;;;;-142.91;100.00;56616.03;4989988;28;20201;-70
2022/03/25 07:48:18;;;;;;;17.90;12.02;;;;;;;-142.91;100.00;56616.03;4987238;28;20673;-70
2022/03/25 07:50:45;;;;;;;20.50;11.65;;;;;;;-142.91;100.00;56616.03;4989916;28;20204;-71
2022/03/25 07:53:12;;;;;;;20.23;11.60;;;;;;;-142.91;100.00;56616.03;4989300;28;20204;-71
2022/03/25 07:55:39;;;;;;;14.93;12.52;;;;;;;-142.91;100.00;56616.03;4988902;28;20679;-69
2022/03/25 07:58:06;;;;;;;18.85;12.65;;;;;;;-142.91;100.00;56616.03;4988247;28;20250;-70
2022/03/25 08:00:33;;;;;;;24.60;12.45;;;;;;;-142.91;100.00;56616.03;4988044;28;20288;-70
2022/03/25 08:03:00;;;;;;;20.80;12.63;;;;;;;-142.91;100.00;56616.03;4987136;28;20284;-70
2022/03/25 08:05:29;;;;;;;22.55;11.93;;;;;;;-142.91;100.00;56616.03;4986572;28;20213;-70
2022/03/25 08:07:57;;;;;;;19.73;12.30;;;;;;;-142.91;100.00;56616.03;4987833;28;20233;-70
2022/03/25 08:10:25;;;;;;;17.80;12.00;;;;;;;-142.91;100.00;56616.03;4988586;28;20204;-69
2022/03/25 08:12:54;;;;;;;31.17;12.70;;;;;;;-142.91;100.00;56616.03;4987490;28;20262;-70
2022/03/25 08:15:23;;;;;;;24.02;12.32;;;;;;;-142.91;100.00;56616.03;4986967;28;20208;-71
2022/03/25 08:17:53;;;;;;;18.50;12.32;;;;;;;-142.91;100.00;56616.03;4986676;28;20204;-70
2022/03/25 08:20:22;;;;;;;19.23;11.38;;;;;;;-142.91;100.00;56616.03;4986630;28;20789;-70
2022/03/25 08:22:50;;;;;;;26.83;12.00;;;;;;;-142.91;100.00;56616.03;4987516;28;20592;-70
2022/03/25 08:28:01;;;;;;;16.77;11.90;;;;;;;-142.91;100.00;56616.03;4984557;28;20212;-71
2022/03/25 08:30:29;;;;;;;15.55;10.25;;;;;;;-142.91;100.00;56616.03;4984467;28;20298;-69
2022/03/25 08:32:57;;;;;;;22.88;10.25;;;;;;;-142.91;100.00;56616.03;4984963;28;20236;-71
2022/03/25 08:35:24;;;;;;;27.38;11.05;;;;;;;-142.91;100.00;56616.03;4984783;28;20341;-71
2022/03/25 08:37:53;;;;;;;21.48;12.05;;;;;;;-142.91;100.00;56616.03;4985407;28;20216;-71
2022/03/25 08:40:21;;;;;;;21.77;10.82;;;;;;;-142.91;100.00;56616.03;4986468;28;20787;-71
2022/03/25 08:42:48;;;;;;;25.35;10.48;;;;;;;-142.91;100.00;56616.03;4985761;28;20285;-70
2022/03/25 08:45:16;;;;;;;16.67;10.57;;;;;;;-142.91;100.00;56616.03;4986001;28;20197;-70
2022/03/25 08:47:43;;;;;;;13.80;9.52;;;;;;;-142.91;100.00;56616.03;4985896;28;20274;-71
2022/03/25 08:50:12;;;;;;;14.15;10.45;;;;;;;-142.91;100.00;56616.03;4986618;28;20216;-71
2022/03/25 08:52:40;;;;;;;17.63;10.13;;;;;;;-142.91;100.00;56616.03;4986522;28;20694;-71
2022/03/25 08:55:09;;;;;;;17.33;11.18;;;;;;;-142.91;100.00;56616.03;4986553;28;20744;-71
2022/03/25 08:57:37;;;;;;;13.95;10.52;;;;;;;-142.91;100.00;56616.03;4986657;28;20215;-70
2022/03/25 09:00:07;;;;;;;20.48;10.40;;;;;;;-142.91;100.00;56616.03;4985974;28;20220;-70
2022/03/25 09:02:34;;;;;;;22.70;11.00;;;;;;;-142.91;100.00;56616.03;4986835;28;20653;-71
2022/03/25 09:05:00;;;;;;;12.40;8.73;;;;;;;-142.91;100.00;56616.03;4987269;28;20204;-70
2022/03/25 09:07:27;;;;;;;14.05;10.73;;;;;;;-142.91;100.00;56616.03;4985964;28;20209;-71
2022/03/25 09:09:54;;;;;;;20.50;10.27;;;;;;;-142.91;100.00;56616.03;4986058;28;20287;-70
2022/03/25 09:12:23;;;;;;;21.65;10.90;;;;;;;-142.91;100.00;56616.03;4985884;28;20273;-70
2022/03/25 09:14:50;;;;;;;15.45;9.00;;;;;;;-142.91;100.00;56616.03;4984955;28;20204;-71
2022/03/25 09:17:17;;;;;;;17.85;8.43;;;;;;;-142.91;100.00;56616.03;4986629;28;20231;-71
2022/03/25 09:19:44;;;;;;;14.88;9.02;;;;;;;-142.91;100.00;56616.03;4986688;28;20222;-71
2022/03/25 09:22:11;;;;;;;20.85;8.57;;;;;;;-142.91;100.00;56616.03;4986100;28;21993;-71
2022/03/25 09:24:38;;;;;;;10.25;8.13;;;;;;;-142.91;100.00;56616.03;4986107;28;20940;-71
2022/03/25 09:27:05;;;;;;;11.07;7.85;;;;;;;-142.91;100.00;56616.03;4985953;28;20213;-71
2022/03/25 09:29:33;;;;;;;10.68;8.35;;;;;;;-142.91;100.00;56616.03;4985644;28;20209;-71
2022/03/25 09:32:01;;;;;;;16.23;8.60;;;;;;;-142.91;100.00;56616.03;4986216;28;20962;-71
2022/03/25 09:37:12;;;;;;;14.95;8.02;;;;;;;-142.91;100.00;56616.03;4986810;28;20725;-71
2022/03/25 09:39:39;;;;;;;17.52;9.25;;;;;;;-142.91;100.00;56616.03;4983451;28;20627;-70
2022/03/25 09:42:08;;;;;;;13.98;7.88;;;;;;;-142.91;100.00;56616.03;4983420;28;20762;-71
2022/03/25 09:44:39;;;;;;;13.50;8.25;;;;;;;-142.91;100.00;56616.03;4983840;28;20239;-71
2022/03/25 09:47:06;;;;;;;12.55;8.82;;;;;;;-142.91;100.00;56616.03;4984492;28;20212;-70
2022/03/25 09:49:33;;;;;;;9.48;8.23;;;;;;;-142.91;100.00;56616.03;4982135;28;20645;-71
2022/03/25 09:52:00;;;;;;;10.32;8.07;;;;;;;-142.91;100.00;56616.03;4983520;28;20197;-71
2022/03/25 09:54:29;;;;;;;13.82;7.70;;;;;;;-142.91;100.00;56616.03;4983108;28;21133;-70
2022/03/25 09:56:56;;;;;;;9.73;7.93;;;;;;;-142.91;100.00;56616.03;4985668;28;20241;-71
2022/03/25 09:59:22;;;;;;;11.23;7.43;;;;;;;-142.91;100.00;56616.03;4983393;28;20234;-71
2022/03/25 10:01:50;;;;;;;15.18;7.68;;;;;;;-142.91;100.00;56616.03;4982662;28;20213;-70
2022/03/25 10:04:46;;;;;;;10.73;7.85;;;;;;;-142.91;100.00;56616.03;4983494;28;20236;-70
2022/03/25 10:07:18;;;;;;;8.90;6.85;;;;;;;-142.91;100.00;56616.03;4980516;28;20216;-72
2022/03/25 10:09:45;;;;;;;13.15;6.85;;;;;;;-142.91;100.00;56616.03;4983524;28;20213;-71
2022/03/25 10:12:23;;;;;;;23.65;7.88;;;;;;;-142.91;100.00;56616.03;4981520;28;20289;-70
2022/03/25 10:14:52;;;;;;;9.88;7.80;;;;;;;-142.91;100.00;56616.03;4983632;28;20212;-70
2022/03/25 10:17:20;;;;;;;12.23;7.30;;;;;;;-142.91;100.00;56616.03;4982623;28;20298;-70
2022/03/25 10:19:48;;;;;;;16.48;7.55;;;;;;;-142.91;100.00;56616.03;4983897;28;20220;-70
2022/03/25 10:22:17;;;;;;;10.77;7.03;;;;;;;-142.91;100.00;56616.03;4982522;28;20706;-70
2022/03/25 10:24:48;;;;;;;11.68;8.68;;;;;;;-142.91;100.00;56616.03;4981144;28;20668;-70
2022/03/25 10:27:21;;;;;;;15.95;7.93;;;;;;;-142.91;100.00;56616.03;4982635;28;20691;-69
2022/03/25 10:29:50;;;;;;;10.98;6.65;;;;;;;-142.91;100.00;56616.03;4977798;28;20752;-70
2022/03/25 10:32:19;;;;;;;13.60;8.30;;;;;;;-142.91;100.00;56616.03;4980786;28;20213;-70
2022/03/25 10:35:02;;;;;;;10.60;7.18;;;;;;;-142.91;100.00;56616.03;4981471;28;20219;-71
2022/03/25 10:37:29;;;;;;;14.57;7.20;;;;;;;-142.91;100.00;56616.03;4977907;28;20208;-70
2022/03/25 10:39:56;;;;;;;9.95;7.60;;;;;;;-142.91;100.00;56616.03;4980133;28;20311;-69
2022/03/25 10:42:23;;;;;;;14.13;7.63;;;;;;;-142.91;100.00;56616.03;4977822;28;20712;-70
2022/03/25 10:44:50;;;;;;;10.68;6.63;;;;;;;-142.91;100.00;56616.03;4983111;28;20257;-74
2022/03/25 10:47:24;;;;;;;10.63;7.15;;;;;;;-142.91;100.00;56616.03;4981687;28;20297;-70
2022/03/25 10:49:53;;;;;;;8.15;6.57;;;;;;;-142.91;100.00;56616.03;4978141;28;20210;-71
2022/03/25 10:52:25;;;;;;;11.63;7.50;;;;;;;-142.91;100.00;56616.03;4977921;28;20219;-70
2022/03/25 10:55:12;;;;;;;7.70;6.90;;;;;;;-142.91;100.00;56616.03;4980977;28;20224;-70
2022/03/25 10:57:50;;;;;;;10.65;6.60;;;;;;;-142.91;100.00;56616.03;4978890;28;20221;-70
2022/03/25 11:00:17;;;;;;;6.60;6.00;;;;;;;-142.91;100.00;56616.03;4982031;28;20211;-71
2022/03/25 11:02:45;;;;;;;9.15;6.65;;;;;;;-142.91;100.00;56616.03;4981807;28;20862;-71
2022/03/25 11:05:14;;;;;;;10.02;6.65;;;;;;;-142.91;100.00;56616.03;4981776;28;20208;-66
2022/03/25 11:07:43;;;;;;;18.70;6.72;;;;;;;-142.91;100.00;56616.03;4979116;28;20269;-70
2022/03/25 11:10:12;;;;;;;7.30;6.60;;;;;;;-142.91;100.00;56616.03;4982597;28;20208;-70